sensor_id;sensor_type;location;lat;lon;timestamp;P1;durP1;ratioP1;P2;durP2;ratioP2
16385;SDS011;8302;51.154;4.456;2022-10-29T00:00:06;7.15;;;3.85;;
16385;SDS011;8302;51.154;4.456;2022-10-29T00:02:34;8.45;;;4.40;;
16385;SDS011;8302;51.154;4.456;2022-10-29T00:05:02;10.95;;;4.35;;
16385;SDS011;8302;51.154;4.456;2022-10-29T00:07:30;8.60;;;4.07;;
16385;SDS011;8302;51.154;4.456;2022-10-29T00:09:58;9.25;;;3.80;;
16385;SDS011;8302;51.154;4.456;2022-10-29T00:12:28;7.43;;;4.07;;
16385;SDS011;8302;51.154;4.456;2022-10-29T00:14:55;10.52;;;3.85;;
16385;SDS011;8302;51.154;4.456;2022-10-29T00:17:23;9.48;;;4.38;;
16385;SDS011;8302;51.154;4.456;2022-10-29T00:19:51;10.68;;;4.75;;
16385;SDS011;8302;51.154;4.456;2022-10-29T00:22:20;12.00;;;4.85;;
16385;SDS011;8302;51.154;4.456;2022-10-29T00:24:48;9.63;;;4.70;;
16385;SDS011;8302;51.154;4.456;2022-10-29T00:27:16;7.85;;;4.63;;
16385;SDS011;8302;51.154;4.456;2022-10-29T00:29:45;7.90;;;3.90;;
16385;SDS011;8302;51.154;4.456;2022-10-29T00:32:13;9.63;;;4.22;;
16385;SDS011;8302;51.154;4.456;2022-10-29T00:34:41;12.00;;;4.35;;
16385;SDS011;8302;51.154;4.456;2022-10-29T00:37:09;9.30;;;4.72;;
16385;SDS011;8302;51.154;4.456;2022-10-29T00:39:37;8.52;;;4.50;;
16385;SDS011;8302;51.154;4.456;2022-10-29T00:42:05;6.57;;;3.83;;
16385;SDS011;8302;51.154;4.456;2022-10-29T00:44:33;7.53;;;3.47;;
16385;SDS011;8302;51.154;4.456;2022-10-29T00:47:09;9.50;;;3.80;;
16385;SDS011;8302;51.154;4.456;2022-10-29T00:49:39;10.55;;;4.40;;
16385;SDS011;8302;51.154;4.456;2022-10-29T00:52:07;10.50;;;4.60;;
16385;SDS011;8302;51.154;4.456;2022-10-29T00:54:38;9.57;;;4.30;;
16385;SDS011;8302;51.154;4.456;2022-10-29T00:57:07;6.22;;;3.42;;
16385;SDS011;8302;51.154;4.456;2022-10-29T00:59:36;13.32;;;4.00;;
16385;SDS011;8302;51.154;4.456;2022-10-29T01:02:05;7.85;;;4.15;;
16385;SDS011;8302;51.154;4.456;2022-10-29T01:04:34;8.65;;;4.82;;
16385;SDS011;8302;51.154;4.456;2022-10-29T01:07:03;9.43;;;4.25;;
16385;SDS011;8302;51.154;4.456;2022-10-29T01:09:31;9.48;;;4.78;;
16385;SDS011;8302;51.154;4.456;2022-10-29T01:12:03;7.38;;;3.97;;
16385;SDS011;8302;51.154;4.456;2022-10-29T01:14:35;11.45;;;4.45;;
16385;SDS011;8302;51.154;4.456;2022-10-29T01:17:13;14.40;;;5.28;;
16385;SDS011;8302;51.154;4.456;2022-10-29T01:19:59;7.55;;;4.45;;
16385;SDS011;8302;51.154;4.456;2022-10-29T01:22:32;7.95;;;3.80;;
16385;SDS011;8302;51.154;4.456;2022-10-29T01:25:11;10.35;;;3.47;;
16385;SDS011;8302;51.154;4.456;2022-10-29T01:27:54;11.45;;;4.13;;
16385;SDS011;8302;51.154;4.456;2022-10-29T01:33:13;9.90;;;4.35;;
16385;SDS011;8302;51.154;4.456;2022-10-29T01:35:46;9.30;;;3.70;;
16385;SDS011;8302;51.154;4.456;2022-10-29T01:38:18;10.18;;;4.70;;
16385;SDS011;8302;51.154;4.456;2022-10-29T01:40:50;7.40;;;4.20;;
16385;SDS011;8302;51.154;4.456;2022-10-29T01:43:21;14.27;;;4.47;;
16385;SDS011;8302;51.154;4.456;2022-10-29T01:45:53;9.48;;;4.00;;
16385;SDS011;8302;51.154;4.456;2022-10-29T01:48:25;8.80;;;4.30;;
16385;SDS011;8302;51.154;4.456;2022-10-29T01:50:59;11.57;;;4.40;;
16385;SDS011;8302;51.154;4.456;2022-10-29T01:53:29;9.77;;;4.88;;
16385;SDS011;8302;51.154;4.456;2022-10-29T01:55:57;12.68;;;5.05;;
16385;SDS011;8302;51.154;4.456;2022-10-29T01:58:25;9.35;;;4.50;;
16385;SDS011;8302;51.154;4.456;2022-10-29T02:00:55;7.25;;;3.60;;
16385;SDS011;8302;51.154;4.456;2022-10-29T02:03:29;9.23;;;4.22;;
16385;SDS011;8302;51.154;4.456;2022-10-29T02:05:59;12.40;;;4.68;;
16385;SDS011;8302;51.154;4.456;2022-10-29T02:08:33;9.15;;;4.38;;
16385;SDS011;8302;51.154;4.456;2022-10-29T02:11:05;8.82;;;3.90;;
16385;SDS011;8302;51.154;4.456;2022-10-29T02:13:36;7.47;;;3.83;;
16385;SDS011;8302;51.154;4.456;2022-10-29T02:16:07;7.85;;;3.88;;
16385;SDS011;8302;51.154;4.456;2022-10-29T02:18:41;9.32;;;4.38;;
16385;SDS011;8302;51.154;4.456;2022-10-29T02:21:10;10.10;;;4.07;;
16385;SDS011;8302;51.154;4.456;2022-10-29T02:23:38;7.22;;;4.60;;
16385;SDS011;8302;51.154;4.456;2022-10-29T02:26:06;11.48;;;4.15;;
16385;SDS011;8302;51.154;4.456;2022-10-29T02:28:34;7.78;;;3.83;;
16385;SDS011;8302;51.154;4.456;2022-10-29T02:31:01;10.07;;;3.97;;
16385;SDS011;8302;51.154;4.456;2022-10-29T02:33:29;9.93;;;4.07;;
16385;SDS011;8302;51.154;4.456;2022-10-29T02:35:59;13.52;;;4.55;;
16385;SDS011;8302;51.154;4.456;2022-10-29T02:38:27;8.55;;;4.10;;
16385;SDS011;8302;51.154;4.456;2022-10-29T02:40:54;7.88;;;4.15;;
16385;SDS011;8302;51.154;4.456;2022-10-29T02:43:22;9.02;;;3.92;;
16385;SDS011;8302;51.154;4.456;2022-10-29T02:48:33;10.45;;;4.18;;
16385;SDS011;8302;51.154;4.456;2022-10-29T02:51:03;8.95;;;4.32;;
16385;SDS011;8302;51.154;4.456;2022-10-29T02:53:31;8.48;;;4.35;;
16385;SDS011;8302;51.154;4.456;2022-10-29T02:55:58;7.72;;;4.03;;
16385;SDS011;8302;51.154;4.456;2022-10-29T02:58:27;8.02;;;3.63;;
16385;SDS011;8302;51.154;4.456;2022-10-29T03:00:54;10.18;;;4.22;;
16385;SDS011;8302;51.154;4.456;2022-10-29T03:03:22;8.93;;;4.40;;
16385;SDS011;8302;51.154;4.456;2022-10-29T03:05:51;7.53;;;4.00;;
16385;SDS011;8302;51.154;4.456;2022-10-29T03:08:20;8.77;;;4.03;;
16385;SDS011;8302;51.154;4.456;2022-10-29T03:10:48;8.38;;;3.88;;
16385;SDS011;8302;51.154;4.456;2022-10-29T03:13:16;7.18;;;3.83;;
16385;SDS011;8302;51.154;4.456;2022-10-29T03:15:44;12.13;;;4.03;;
16385;SDS011;8302;51.154;4.456;2022-10-29T03:18:12;7.43;;;3.92;;
16385;SDS011;8302;51.154;4.456;2022-10-29T03:20:41;10.35;;;4.13;;
16385;SDS011;8302;51.154;4.456;2022-10-29T03:23:11;8.10;;;3.97;;
16385;SDS011;8302;51.154;4.456;2022-10-29T03:25:40;6.18;;;3.58;;
16385;SDS011;8302;51.154;4.456;2022-10-29T03:28:08;6.15;;;3.92;;
16385;SDS011;8302;51.154;4.456;2022-10-29T03:30:36;8.32;;;3.97;;
16385;SDS011;8302;51.154;4.456;2022-10-29T03:33:03;9.02;;;3.67;;
16385;SDS011;8302;51.154;4.456;2022-10-29T03:35:31;10.93;;;3.60;;
16385;SDS011;8302;51.154;4.456;2022-10-29T03:37:59;8.65;;;4.10;;
16385;SDS011;8302;51.154;4.456;2022-10-29T03:40:27;7.60;;;3.83;;
16385;SDS011;8302;51.154;4.456;2022-10-29T03:42:57;7.45;;;4.20;;
16385;SDS011;8302;51.154;4.456;2022-10-29T03:45:25;10.23;;;3.97;;
16385;SDS011;8302;51.154;4.456;2022-10-29T03:47:53;6.22;;;3.42;;
16385;SDS011;8302;51.154;4.456;2022-10-29T03:50:23;6.95;;;3.78;;
16385;SDS011;8302;51.154;4.456;2022-10-29T03:52:51;7.63;;;3.47;;
16385;SDS011;8302;51.154;4.456;2022-10-29T03:55:19;7.18;;;3.50;;
16385;SDS011;8302;51.154;4.456;2022-10-29T03:57:46;9.05;;;3.90;;
16385;SDS011;8302;51.154;4.456;2022-10-29T04:00:16;12.07;;;3.92;;
16385;SDS011;8302;51.154;4.456;2022-10-29T04:02:44;9.82;;;3.47;;
16385;SDS011;8302;51.154;4.456;2022-10-29T04:05:12;10.60;;;3.60;;
16385;SDS011;8302;51.154;4.456;2022-10-29T04:07:39;7.68;;;3.80;;
16385;SDS011;8302;51.154;4.456;2022-10-29T04:10:07;10.23;;;3.97;;
16385;SDS011;8302;51.154;4.456;2022-10-29T04:12:35;14.07;;;4.05;;
16385;SDS011;8302;51.154;4.456;2022-10-29T04:15:04;7.35;;;3.50;;
16385;SDS011;8302;51.154;4.456;2022-10-29T04:17:33;9.95;;;3.60;;
16385;SDS011;8302;51.154;4.456;2022-10-29T04:20:01;7.80;;;4.18;;
16385;SDS011;8302;51.154;4.456;2022-10-29T04:22:49;9.80;;;3.83;;
16385;SDS011;8302;51.154;4.456;2022-10-29T04:25:37;12.63;;;3.97;;
16385;SDS011;8302;51.154;4.456;2022-10-29T04:28:25;10.95;;;4.07;;
16385;SDS011;8302;51.154;4.456;2022-10-29T04:31:10;8.13;;;3.20;;
16385;SDS011;8302;51.154;4.456;2022-10-29T04:33:39;5.55;;;2.92;;
16385;SDS011;8302;51.154;4.456;2022-10-29T04:36:08;9.68;;;3.63;;
16385;SDS011;8302;51.154;4.456;2022-10-29T04:38:36;9.25;;;3.75;;
16385;SDS011;8302;51.154;4.456;2022-10-29T04:41:04;8.65;;;3.58;;
16385;SDS011;8302;51.154;4.456;2022-10-29T04:43:31;7.07;;;3.38;;
16385;SDS011;8302;51.154;4.456;2022-10-29T04:45:59;11.40;;;4.00;;
16385;SDS011;8302;51.154;4.456;2022-10-29T04:48:28;10.30;;;3.45;;
16385;SDS011;8302;51.154;4.456;2022-10-29T04:50:57;9.00;;;3.70;;
16385;SDS011;8302;51.154;4.456;2022-10-29T04:53:25;8.77;;;4.35;;
16385;SDS011;8302;51.154;4.456;2022-10-29T04:55:57;9.98;;;4.32;;
16385;SDS011;8302;51.154;4.456;2022-10-29T04:58:25;11.50;;;3.88;;
16385;SDS011;8302;51.154;4.456;2022-10-29T05:00:59;8.02;;;4.30;;
16385;SDS011;8302;51.154;4.456;2022-10-29T05:03:27;10.80;;;4.10;;
16385;SDS011;8302;51.154;4.456;2022-10-29T05:05:55;10.05;;;4.05;;
16385;SDS011;8302;51.154;4.456;2022-10-29T05:08:25;13.90;;;4.28;;
16385;SDS011;8302;51.154;4.456;2022-10-29T05:10:53;9.50;;;4.25;;
16385;SDS011;8302;51.154;4.456;2022-10-29T05:13:20;9.10;;;4.07;;
16385;SDS011;8302;51.154;4.456;2022-10-29T05:15:49;8.57;;;4.45;;
16385;SDS011;8302;51.154;4.456;2022-10-29T05:18:19;12.18;;;3.60;;
16385;SDS011;8302;51.154;4.456;2022-10-29T05:20:47;10.10;;;3.72;;
16385;SDS011;8302;51.154;4.456;2022-10-29T05:23:15;11.25;;;4.38;;
16385;SDS011;8302;51.154;4.456;2022-10-29T05:25:45;11.07;;;4.07;;
16385;SDS011;8302;51.154;4.456;2022-10-29T05:28:15;12.07;;;4.35;;
16385;SDS011;8302;51.154;4.456;2022-10-29T05:30:44;9.23;;;4.32;;
16385;SDS011;8302;51.154;4.456;2022-10-29T05:33:13;7.53;;;3.97;;
16385;SDS011;8302;51.154;4.456;2022-10-29T05:35:41;9.32;;;4.65;;
16385;SDS011;8302;51.154;4.456;2022-10-29T05:38:09;10.70;;;4.13;;
16385;SDS011;8302;51.154;4.456;2022-10-29T05:40:38;13.50;;;4.88;;
16385;SDS011;8302;51.154;4.456;2022-10-29T05:43:08;10.35;;;4.72;;
16385;SDS011;8302;51.154;4.456;2022-10-29T05:45:36;16.52;;;4.93;;
16385;SDS011;8302;51.154;4.456;2022-10-29T05:48:04;8.68;;;4.28;;
16385;SDS011;8302;51.154;4.456;2022-10-29T05:50:32;12.00;;;4.90;;
16385;SDS011;8302;51.154;4.456;2022-10-29T05:53:01;12.65;;;4.47;;
16385;SDS011;8302;51.154;4.456;2022-10-29T05:55:30;10.57;;;4.82;;
16385;SDS011;8302;51.154;4.456;2022-10-29T05:57:59;9.57;;;4.75;;
16385;SDS011;8302;51.154;4.456;2022-10-29T06:00:28;8.07;;;4.68;;
16385;SDS011;8302;51.154;4.456;2022-10-29T06:02:56;9.13;;;4.85;;
16385;SDS011;8302;51.154;4.456;2022-10-29T06:05:25;8.38;;;4.60;;
16385;SDS011;8302;51.154;4.456;2022-10-29T06:07:53;8.63;;;4.78;;
16385;SDS011;8302;51.154;4.456;2022-10-29T06:10:23;15.35;;;4.40;;
16385;SDS011;8302;51.154;4.456;2022-10-29T06:12:51;9.82;;;4.85;;
16385;SDS011;8302;51.154;4.456;2022-10-29T06:15:19;10.68;;;4.80;;
16385;SDS011;8302;51.154;4.456;2022-10-29T06:17:49;10.60;;;5.55;;
16385;SDS011;8302;51.154;4.456;2022-10-29T06:20:18;13.02;;;5.05;;
16385;SDS011;8302;51.154;4.456;2022-10-29T06:22:46;10.40;;;4.82;;
16385;SDS011;8302;51.154;4.456;2022-10-29T06:25:14;14.40;;;4.32;;
16385;SDS011;8302;51.154;4.456;2022-10-29T06:27:42;14.73;;;4.75;;
16385;SDS011;8302;51.154;4.456;2022-10-29T06:30:11;10.30;;;3.92;;
16385;SDS011;8302;51.154;4.456;2022-10-29T06:32:39;12.68;;;4.93;;
16385;SDS011;8302;51.154;4.456;2022-10-29T06:35:08;14.75;;;5.03;;
16385;SDS011;8302;51.154;4.456;2022-10-29T06:37:36;9.63;;;4.40;;
16385;SDS011;8302;51.154;4.456;2022-10-29T06:40:05;8.32;;;4.40;;
16385;SDS011;8302;51.154;4.456;2022-10-29T06:42:33;7.13;;;4.03;;
16385;SDS011;8302;51.154;4.456;2022-10-29T06:45:01;6.13;;;3.95;;
16385;SDS011;8302;51.154;4.456;2022-10-29T06:47:28;8.40;;;4.10;;
16385;SDS011;8302;51.154;4.456;2022-10-29T06:49:57;8.95;;;4.82;;
16385;SDS011;8302;51.154;4.456;2022-10-29T06:52:26;9.60;;;4.90;;
16385;SDS011;8302;51.154;4.456;2022-10-29T06:54:54;13.90;;;4.75;;
16385;SDS011;8302;51.154;4.456;2022-10-29T06:57:22;11.38;;;4.88;;
16385;SDS011;8302;51.154;4.456;2022-10-29T06:59:50;9.05;;;4.47;;
16385;SDS011;8302;51.154;4.456;2022-10-29T07:02:18;5.65;;;2.42;;
16385;SDS011;8302;51.154;4.456;2022-10-29T07:04:46;8.27;;;3.20;;
16385;SDS011;8302;51.154;4.456;2022-10-29T07:07:14;6.60;;;2.38;;
16385;SDS011;8302;51.154;4.456;2022-10-29T07:09:44;6.57;;;2.60;;
16385;SDS011;8302;51.154;4.456;2022-10-29T07:12:12;2.60;;;2.10;;
16385;SDS011;8302;51.154;4.456;2022-10-29T07:14:40;3.45;;;1.98;;
16385;SDS011;8302;51.154;4.456;2022-10-29T07:17:07;2.58;;;1.58;;
16385;SDS011;8302;51.154;4.456;2022-10-29T07:19:35;4.88;;;3.13;;
16385;SDS011;8302;51.154;4.456;2022-10-29T07:22:03;4.07;;;1.63;;
16385;SDS011;8302;51.154;4.456;2022-10-29T07:24:31;4.38;;;1.98;;
16385;SDS011;8302;51.154;4.456;2022-10-29T07:27:01;6.90;;;2.92;;
16385;SDS011;8302;51.154;4.456;2022-10-29T07:29:29;2.63;;;1.13;;
16385;SDS011;8302;51.154;4.456;2022-10-29T07:31:57;4.75;;;2.30;;
16385;SDS011;8302;51.154;4.456;2022-10-29T07:34:25;3.08;;;1.70;;
16385;SDS011;8302;51.154;4.456;2022-10-29T07:36:52;2.83;;;1.83;;
16385;SDS011;8302;51.154;4.456;2022-10-29T07:39:20;4.82;;;2.55;;
16385;SDS011;8302;51.154;4.456;2022-10-29T07:41:48;1.42;;;0.82;;
16385;SDS011;8302;51.154;4.456;2022-10-29T07:44:20;1.85;;;1.10;;
16385;SDS011;8302;51.154;4.456;2022-10-29T07:46:48;0.95;;;0.80;;
16385;SDS011;8302;51.154;4.456;2022-10-29T07:49:16;7.38;;;2.53;;
16385;SDS011;8302;51.154;4.456;2022-10-29T07:51:44;2.90;;;1.63;;
16385;SDS011;8302;51.154;4.456;2022-10-29T07:54:12;7.10;;;3.08;;
16385;SDS011;8302;51.154;4.456;2022-10-29T07:56:40;9.25;;;3.50;;
16385;SDS011;8302;51.154;4.456;2022-10-29T07:59:13;7.28;;;2.88;;
16385;SDS011;8302;51.154;4.456;2022-10-29T08:01:44;5.07;;;2.15;;
16385;SDS011;8302;51.154;4.456;2022-10-29T08:04:12;7.22;;;2.97;;
16385;SDS011;8302;51.154;4.456;2022-10-29T08:06:40;4.00;;;2.58;;
16385;SDS011;8302;51.154;4.456;2022-10-29T08:09:09;8.38;;;3.63;;
16385;SDS011;8302;51.154;4.456;2022-10-29T08:11:37;3.92;;;2.38;;
16385;SDS011;8302;51.154;4.456;2022-10-29T08:14:05;1.65;;;0.93;;
16385;SDS011;8302;51.154;4.456;2022-10-29T08:16:33;2.95;;;1.58;;
16385;SDS011;8302;51.154;4.456;2022-10-29T08:19:02;2.60;;;1.90;;
16385;SDS011;8302;51.154;4.456;2022-10-29T08:21:30;4.68;;;1.35;;
16385;SDS011;8302;51.154;4.456;2022-10-29T08:23:58;8.27;;;3.20;;
16385;SDS011;8302;51.154;4.456;2022-10-29T08:26:26;2.38;;;1.85;;
16385;SDS011;8302;51.154;4.456;2022-10-29T08:28:54;2.40;;;1.42;;
16385;SDS011;8302;51.154;4.456;2022-10-29T08:31:21;5.80;;;2.85;;
16385;SDS011;8302;51.154;4.456;2022-10-29T08:33:49;5.03;;;2.88;;
16385;SDS011;8302;51.154;4.456;2022-10-29T08:36:18;4.60;;;1.02;;
16385;SDS011;8302;51.154;4.456;2022-10-29T08:38:46;13.57;;;2.88;;
16385;SDS011;8302;51.154;4.456;2022-10-29T08:41:19;4.82;;;2.55;;
16385;SDS011;8302;51.154;4.456;2022-10-29T08:46:42;4.68;;;2.72;;
16385;SDS011;8302;51.154;4.456;2022-10-29T08:49:12;8.45;;;2.95;;
16385;SDS011;8302;51.154;4.456;2022-10-29T08:51:43;4.57;;;2.05;;
16385;SDS011;8302;51.154;4.456;2022-10-29T08:54:14;11.07;;;1.70;;
16385;SDS011;8302;51.154;4.456;2022-10-29T08:56:56;4.47;;;2.17;;
16385;SDS011;8302;51.154;4.456;2022-10-29T08:59:25;1.85;;;0.98;;
16385;SDS011;8302;51.154;4.456;2022-10-29T09:01:56;14.50;;;3.78;;
16385;SDS011;8302;51.154;4.456;2022-10-29T09:04:24;6.13;;;2.42;;
16385;SDS011;8302;51.154;4.456;2022-10-29T09:06:59;3.50;;;1.45;;
16385;SDS011;8302;51.154;4.456;2022-10-29T09:09:33;6.68;;;2.13;;
16385;SDS011;8302;51.154;4.456;2022-10-29T09:12:10;4.00;;;1.02;;
16385;SDS011;8302;51.154;4.456;2022-10-29T09:14:47;4.78;;;2.55;;
16385;SDS011;8302;51.154;4.456;2022-10-29T09:17:21;2.55;;;1.27;;
16385;SDS011;8302;51.154;4.456;2022-10-29T09:19:59;1.52;;;1.23;;
16385;SDS011;8302;51.154;4.456;2022-10-29T09:22:33;2.25;;;0.98;;
16385;SDS011;8302;51.154;4.456;2022-10-29T09:25:06;4.40;;;1.35;;
16385;SDS011;8302;51.154;4.456;2022-10-29T09:27:40;1.80;;;1.08;;
16385;SDS011;8302;51.154;4.456;2022-10-29T09:30:12;1.77;;;1.58;;
16385;SDS011;8302;51.154;4.456;2022-10-29T09:32:42;3.92;;;1.98;;
16385;SDS011;8302;51.154;4.456;2022-10-29T09:35:12;4.05;;;1.80;;
16385;SDS011;8302;51.154;4.456;2022-10-29T09:37:43;4.80;;;2.22;;
16385;SDS011;8302;51.154;4.456;2022-10-29T09:40:14;5.85;;;2.83;;
16385;SDS011;8302;51.154;4.456;2022-10-29T09:42:43;10.73;;;2.88;;
16385;SDS011;8302;51.154;4.456;2022-10-29T09:45:12;3.75;;;2.05;;
16385;SDS011;8302;51.154;4.456;2022-10-29T09:47:42;5.15;;;1.33;;
16385;SDS011;8302;51.154;4.456;2022-10-29T09:50:14;4.70;;;1.88;;
16385;SDS011;8302;51.154;4.456;2022-10-29T09:52:44;3.55;;;2.03;;
16385;SDS011;8302;51.154;4.456;2022-10-29T09:55:15;1.33;;;1.20;;
16385;SDS011;8302;51.154;4.456;2022-10-29T09:57:43;3.60;;;1.75;;
16385;SDS011;8302;51.154;4.456;2022-10-29T10:00:15;8.05;;;2.05;;
16385;SDS011;8302;51.154;4.456;2022-10-29T10:02:44;5.22;;;1.67;;
16385;SDS011;8302;51.154;4.456;2022-10-29T10:05:17;8.52;;;2.72;;
16385;SDS011;8302;51.154;4.456;2022-10-29T10:08:02;6.15;;;2.17;;
16385;SDS011;8302;51.154;4.456;2022-10-29T10:10:31;4.45;;;1.83;;
16385;SDS011;8302;51.154;4.456;2022-10-29T10:13:00;5.82;;;2.13;;
16385;SDS011;8302;51.154;4.456;2022-10-29T10:15:29;2.03;;;1.20;;
16385;SDS011;8302;51.154;4.456;2022-10-29T10:17:58;8.73;;;2.75;;
16385;SDS011;8302;51.154;4.456;2022-10-29T10:20:31;3.83;;;1.40;;
16385;SDS011;8302;51.154;4.456;2022-10-29T10:23:01;5.57;;;2.50;;
16385;SDS011;8302;51.154;4.456;2022-10-29T10:25:30;2.20;;;1.60;;
16385;SDS011;8302;51.154;4.456;2022-10-29T10:28:01;2.92;;;1.95;;
16385;SDS011;8302;51.154;4.456;2022-10-29T10:30:30;8.52;;;2.17;;
16385;SDS011;8302;51.154;4.456;2022-10-29T10:33:10;4.90;;;2.10;;
16385;SDS011;8302;51.154;4.456;2022-10-29T10:35:38;3.08;;;1.90;;
16385;SDS011;8302;51.154;4.456;2022-10-29T10:38:08;7.38;;;1.73;;
16385;SDS011;8302;51.154;4.456;2022-10-29T10:40:37;7.40;;;2.75;;
16385;SDS011;8302;51.154;4.456;2022-10-29T10:43:05;4.90;;;2.30;;
16385;SDS011;8302;51.154;4.456;2022-10-29T10:45:34;7.53;;;2.75;;
16385;SDS011;8302;51.154;4.456;2022-10-29T10:48:05;2.80;;;1.02;;
16385;SDS011;8302;51.154;4.456;2022-10-29T10:50:35;6.78;;;2.50;;
16385;SDS011;8302;51.154;4.456;2022-10-29T10:53:04;2.95;;;1.67;;
16385;SDS011;8302;51.154;4.456;2022-10-29T10:55:34;6.45;;;2.13;;
16385;SDS011;8302;51.154;4.456;2022-10-29T10:58:18;12.02;;;2.92;;
16385;SDS011;8302;51.154;4.456;2022-10-29T11:00:50;7.63;;;2.72;;
16385;SDS011;8302;51.154;4.456;2022-10-29T11:03:23;5.90;;;2.10;;
16385;SDS011;8302;51.154;4.456;2022-10-29T11:05:53;1.27;;;0.63;;
16385;SDS011;8302;51.154;4.456;2022-10-29T11:08:24;2.50;;;0.93;;
16385;SDS011;8302;51.154;4.456;2022-10-29T11:10:58;4.85;;;2.30;;
16385;SDS011;8302;51.154;4.456;2022-10-29T11:13:28;12.73;;;2.45;;
16385;SDS011;8302;51.154;4.456;2022-10-29T11:15:56;4.72;;;2.30;;
16385;SDS011;8302;51.154;4.456;2022-10-29T11:18:27;8.57;;;2.85;;
16385;SDS011;8302;51.154;4.456;2022-10-29T11:21:02;4.43;;;2.20;;
16385;SDS011;8302;51.154;4.456;2022-10-29T11:23:37;1.75;;;1.40;;
16385;SDS011;8302;51.154;4.456;2022-10-29T11:26:09;9.52;;;2.35;;
16385;SDS011;8302;51.154;4.456;2022-10-29T11:28:38;10.05;;;2.53;;
16385;SDS011;8302;51.154;4.456;2022-10-29T11:31:10;5.47;;;2.38;;
16385;SDS011;8302;51.154;4.456;2022-10-29T11:33:40;8.15;;;2.33;;
16385;SDS011;8302;51.154;4.456;2022-10-29T11:36:11;5.00;;;2.17;;
16385;SDS011;8302;51.154;4.456;2022-10-29T11:38:41;7.35;;;2.80;;
16385;SDS011;8302;51.154;4.456;2022-10-29T11:41:15;5.95;;;2.75;;
16385;SDS011;8302;51.154;4.456;2022-10-29T11:43:46;7.22;;;1.98;;
16385;SDS011;8302;51.154;4.456;2022-10-29T11:46:15;5.78;;;2.05;;
16385;SDS011;8302;51.154;4.456;2022-10-29T11:48:49;5.32;;;2.47;;
16385;SDS011;8302;51.154;4.456;2022-10-29T11:51:22;5.00;;;1.60;;
16385;SDS011;8302;51.154;4.456;2022-10-29T11:53:54;8.32;;;2.38;;
16385;SDS011;8302;51.154;4.456;2022-10-29T11:56:28;6.57;;;2.25;;
16385;SDS011;8302;51.154;4.456;2022-10-29T11:59:00;14.73;;;2.63;;
16385;SDS011;8302;51.154;4.456;2022-10-29T12:01:31;4.63;;;1.83;;
16385;SDS011;8302;51.154;4.456;2022-10-29T12:06:52;7.72;;;1.88;;
16385;SDS011;8302;51.154;4.456;2022-10-29T12:09:36;6.72;;;2.15;;
16385;SDS011;8302;51.154;4.456;2022-10-29T12:12:09;12.88;;;2.60;;
16385;SDS011;8302;51.154;4.456;2022-10-29T12:14:40;7.15;;;1.02;;
16385;SDS011;8302;51.154;4.456;2022-10-29T12:17:10;6.22;;;1.77;;
16385;SDS011;8302;51.154;4.456;2022-10-29T12:19:43;3.20;;;1.73;;
16385;SDS011;8302;51.154;4.456;2022-10-29T12:22:17;5.60;;;2.35;;
16385;SDS011;8302;51.154;4.456;2022-10-29T12:24:50;6.90;;;1.75;;
16385;SDS011;8302;51.154;4.456;2022-10-29T12:27:22;10.02;;;2.67;;
16385;SDS011;8302;51.154;4.456;2022-10-29T12:29:53;5.43;;;2.65;;
16385;SDS011;8302;51.154;4.456;2022-10-29T12:32:24;4.35;;;2.30;;
16385;SDS011;8302;51.154;4.456;2022-10-29T12:34:57;8.40;;;2.75;;
16385;SDS011;8302;51.154;4.456;2022-10-29T12:37:31;9.40;;;2.42;;
16385;SDS011;8302;51.154;4.456;2022-10-29T12:40:05;6.25;;;2.58;;
16385;SDS011;8302;51.154;4.456;2022-10-29T12:42:38;10.15;;;3.20;;
16385;SDS011;8302;51.154;4.456;2022-10-29T12:45:12;6.03;;;2.53;;
16385;SDS011;8302;51.154;4.456;2022-10-29T12:47:44;12.13;;;3.47;;
16385;SDS011;8302;51.154;4.456;2022-10-29T12:50:18;11.88;;;3.85;;
16385;SDS011;8302;51.154;4.456;2022-10-29T12:52:52;8.48;;;3.78;;
16385;SDS011;8302;51.154;4.456;2022-10-29T12:55:22;16.48;;;3.30;;
16385;SDS011;8302;51.154;4.456;2022-10-29T12:57:52;9.45;;;3.00;;
16385;SDS011;8302;51.154;4.456;2022-10-29T13:00:32;9.43;;;3.03;;
16385;SDS011;8302;51.154;4.456;2022-10-29T13:03:10;6.80;;;3.20;;
16385;SDS011;8302;51.154;4.456;2022-10-29T13:05:39;10.68;;;3.88;;
16385;SDS011;8302;51.154;4.456;2022-10-29T13:11:00;14.32;;;3.17;;
16385;SDS011;8302;51.154;4.456;2022-10-29T13:13:37;10.18;;;2.80;;
16385;SDS011;8302;51.154;4.456;2022-10-29T13:16:06;14.65;;;5.10;;
16385;SDS011;8302;51.154;4.456;2022-10-29T13:18:43;11.63;;;5.50;;
16385;SDS011;8302;51.154;4.456;2022-10-29T13:24:00;11.07;;;4.03;;
16385;SDS011;8302;51.154;4.456;2022-10-29T13:29:13;6.13;;;3.03;;
16385;SDS011;8302;51.154;4.456;2022-10-29T13:32:01;11.85;;;2.95;;
16385;SDS011;8302;51.154;4.456;2022-10-29T13:37:34;6.35;;;2.92;;
16385;SDS011;8302;51.154;4.456;2022-10-29T13:42:51;7.30;;;2.95;;
16385;SDS011;8302;51.154;4.456;2022-10-29T13:45:24;7.63;;;2.92;;
16385;SDS011;8302;51.154;4.456;2022-10-29T13:48:00;13.70;;;3.60;;
16385;SDS011;8302;51.154;4.456;2022-10-29T13:50:28;11.38;;;4.03;;
16385;SDS011;8302;51.154;4.456;2022-10-29T13:52:57;10.68;;;2.97;;
16385;SDS011;8302;51.154;4.456;2022-10-29T13:55:25;11.45;;;2.97;;
16385;SDS011;8302;51.154;4.456;2022-10-29T13:57:57;11.35;;;3.67;;
16385;SDS011;8302;51.154;4.456;2022-10-29T14:00:28;12.52;;;3.17;;
16385;SDS011;8302;51.154;4.456;2022-10-29T14:02:58;10.65;;;2.97;;
16385;SDS011;8302;51.154;4.456;2022-10-29T14:05:27;8.15;;;2.22;;
16385;SDS011;8302;51.154;4.456;2022-10-29T14:07:57;10.65;;;2.70;;
16385;SDS011;8302;51.154;4.456;2022-10-29T14:10:27;9.13;;;3.00;;
16385;SDS011;8302;51.154;4.456;2022-10-29T14:13:05;12.05;;;2.85;;
16385;SDS011;8302;51.154;4.456;2022-10-29T14:15:35;6.95;;;3.00;;
16385;SDS011;8302;51.154;4.456;2022-10-29T14:18:17;10.60;;;2.78;;
16385;SDS011;8302;51.154;4.456;2022-10-29T14:20:52;13.02;;;3.75;;
16385;SDS011;8302;51.154;4.456;2022-10-29T14:23:20;10.68;;;3.17;;
16385;SDS011;8302;51.154;4.456;2022-10-29T14:25:49;6.05;;;3.30;;
16385;SDS011;8302;51.154;4.456;2022-10-29T14:28:18;8.80;;;2.97;;
16385;SDS011;8302;51.154;4.456;2022-10-29T14:30:52;6.78;;;3.45;;
16385;SDS011;8302;51.154;4.456;2022-10-29T14:33:25;9.52;;;3.28;;
16385;SDS011;8302;51.154;4.456;2022-10-29T14:35:54;10.75;;;3.83;;
16385;SDS011;8302;51.154;4.456;2022-10-29T14:38:24;12.73;;;4.05;;
16385;SDS011;8302;51.154;4.456;2022-10-29T14:40:56;9.35;;;3.90;;
16385;SDS011;8302;51.154;4.456;2022-10-29T14:43:25;9.00;;;4.25;;
16385;SDS011;8302;51.154;4.456;2022-10-29T14:45:55;15.85;;;5.35;;
16385;SDS011;8302;51.154;4.456;2022-10-29T14:48:35;14.88;;;5.25;;
16385;SDS011;8302;51.154;4.456;2022-10-29T14:51:04;15.80;;;6.25;;
16385;SDS011;8302;51.154;4.456;2022-10-29T14:53:32;16.02;;;6.32;;
16385;SDS011;8302;51.154;4.456;2022-10-29T14:56:01;13.77;;;5.60;;
16385;SDS011;8302;51.154;4.456;2022-10-29T14:58:33;14.88;;;5.57;;
16385;SDS011;8302;51.154;4.456;2022-10-29T15:01:04;12.77;;;5.07;;
16385;SDS011;8302;51.154;4.456;2022-10-29T15:03:35;8.45;;;3.63;;
16385;SDS011;8302;51.154;4.456;2022-10-29T15:06:09;10.00;;;3.67;;
16385;SDS011;8302;51.154;4.456;2022-10-29T15:08:37;9.55;;;3.58;;
16385;SDS011;8302;51.154;4.456;2022-10-29T15:11:26;10.63;;;3.53;;
16385;SDS011;8302;51.154;4.456;2022-10-29T15:13:57;8.68;;;2.83;;
16385;SDS011;8302;51.154;4.456;2022-10-29T15:16:26;10.20;;;3.33;;
16385;SDS011;8302;51.154;4.456;2022-10-29T15:18:54;9.88;;;3.65;;
16385;SDS011;8302;51.154;4.456;2022-10-29T15:21:23;11.25;;;3.38;;
16385;SDS011;8302;51.154;4.456;2022-10-29T15:23:53;7.90;;;3.63;;
16385;SDS011;8302;51.154;4.456;2022-10-29T15:26:22;7.15;;;3.00;;
16385;SDS011;8302;51.154;4.456;2022-10-29T15:28:50;7.68;;;2.90;;
16385;SDS011;8302;51.154;4.456;2022-10-29T15:31:20;9.75;;;3.50;;
16385;SDS011;8302;51.154;4.456;2022-10-29T15:33:50;8.50;;;3.20;;
16385;SDS011;8302;51.154;4.456;2022-10-29T15:36:19;14.63;;;3.53;;
16385;SDS011;8302;51.154;4.456;2022-10-29T15:41:33;9.20;;;3.30;;
16385;SDS011;8302;51.154;4.456;2022-10-29T15:44:02;9.23;;;3.10;;